sensor_id;sensor_type;location;lat;lon;timestamp;temperature;humidity
21844;DHT22;11084;52.482;9.108;2022-08-07T00:01:45;11.90;99.90
21844;DHT22;11084;52.482;9.108;2022-08-07T00:04:11;11.80;99.90
21844;DHT22;11084;52.482;9.108;2022-08-07T00:06:38;11.80;99.90
21844;DHT22;11084;52.482;9.108;2022-08-07T00:09:04;11.80;99.90
21844;DHT22;11084;52.482;9.108;2022-08-07T00:11:30;11.70;99.90
21844;DHT22;11084;52.482;9.108;2022-08-07T00:16:23;11.60;99.90
21844;DHT22;11084;52.482;9.108;2022-08-07T00:18:49;11.60;99.90
21844;DHT22;11084;52.482;9.108;2022-08-07T00:21:15;11.50;99.90
21844;DHT22;11084;52.482;9.108;2022-08-07T00:23:41;11.60;99.90
21844;DHT22;11084;52.482;9.108;2022-08-07T00:26:09;11.50;99.90
21844;DHT22;11084;52.482;9.108;2022-08-07T00:28:35;11.50;99.90
21844;DHT22;11084;52.482;9.108;2022-08-07T00:31:04;11.40;99.90
21844;DHT22;11084;52.482;9.108;2022-08-07T00:33:34;11.40;99.90
21844;DHT22;11084;52.482;9.108;2022-08-07T00:36:02;11.30;99.90
21844;DHT22;11084;52.482;9.108;2022-08-07T00:38:29;11.40;99.90
21844;DHT22;11084;52.482;9.108;2022-08-07T00:40:55;11.30;99.90
21844;DHT22;11084;52.482;9.108;2022-08-07T00:43:22;11.30;99.90
21844;DHT22;11084;52.482;9.108;2022-08-07T00:45:47;11.30;99.90
21844;DHT22;11084;52.482;9.108;2022-08-07T00:48:14;11.20;99.90
21844;DHT22;11084;52.482;9.108;2022-08-07T00:50:40;11.30;99.90
21844;DHT22;11084;52.482;9.108;2022-08-07T00:53:07;11.20;99.90
21844;DHT22;11084;52.482;9.108;2022-08-07T00:55:33;11.10;99.90
21844;DHT22;11084;52.482;9.108;2022-08-07T00:57:59;11.10;99.90
21844;DHT22;11084;52.482;9.108;2022-08-07T01:00:25;11.10;99.90
21844;DHT22;11084;52.482;9.108;2022-08-07T01:02:52;11.00;99.90
21844;DHT22;11084;52.482;9.108;2022-08-07T01:05:19;11.10;99.90
21844;DHT22;11084;52.482;9.108;2022-08-07T01:07:50;11.00;99.90
21844;DHT22;11084;52.482;9.108;2022-08-07T01:10:16;11.00;99.90
21844;DHT22;11084;52.482;9.108;2022-08-07T01:12:43;11.00;99.90
21844;DHT22;11084;52.482;9.108;2022-08-07T01:15:09;11.00;99.90
21844;DHT22;11084;52.482;9.108;2022-08-07T01:17:36;11.00;99.90
21844;DHT22;11084;52.482;9.108;2022-08-07T01:20:08;11.00;99.90
21844;DHT22;11084;52.482;9.108;2022-08-07T01:22:37;11.00;99.90
21844;DHT22;11084;52.482;9.108;2022-08-07T01:25:04;10.90;99.90
21844;DHT22;11084;52.482;9.108;2022-08-07T01:27:31;10.90;99.90
21844;DHT22;11084;52.482;9.108;2022-08-07T01:29:58;10.80;99.90
21844;DHT22;11084;52.482;9.108;2022-08-07T01:32:26;10.80;99.90
21844;DHT22;11084;52.482;9.108;2022-08-07T01:34:53;10.70;99.90
21844;DHT22;11084;52.482;9.108;2022-08-07T01:37:20;10.60;99.90
21844;DHT22;11084;52.482;9.108;2022-08-07T01:39:48;10.60;99.90
21844;DHT22;11084;52.482;9.108;2022-08-07T01:42:29;10.50;99.90
21844;DHT22;11084;52.482;9.108;2022-08-07T01:44:55;10.50;99.90
21844;DHT22;11084;52.482;9.108;2022-08-07T01:47:23;10.50;99.90
21844;DHT22;11084;52.482;9.108;2022-08-07T01:52:17;10.40;99.90
21844;DHT22;11084;52.482;9.108;2022-08-07T01:54:45;10.40;99.90
21844;DHT22;11084;52.482;9.108;2022-08-07T01:57:18;10.40;99.90
21844;DHT22;11084;52.482;9.108;2022-08-07T01:59:53;10.40;99.90
21844;DHT22;11084;52.482;9.108;2022-08-07T02:02:28;10.40;99.90
21844;DHT22;11084;52.482;9.108;2022-08-07T02:05:09;10.30;99.90
21844;DHT22;11084;52.482;9.108;2022-08-07T02:07:55;10.30;99.90
21844;DHT22;11084;52.482;9.108;2022-08-07T02:10:33;10.20;99.90
21844;DHT22;11084;52.482;9.108;2022-08-07T02:13:04;10.20;99.90
21844;DHT22;11084;52.482;9.108;2022-08-07T02:15:36;10.20;99.90
21844;DHT22;11084;52.482;9.108;2022-08-07T02:18:04;10.20;99.90
21844;DHT22;11084;52.482;9.108;2022-08-07T02:20:32;10.20;99.90
21844;DHT22;11084;52.482;9.108;2022-08-07T02:23:03;10.10;99.90
21844;DHT22;11084;52.482;9.108;2022-08-07T02:25:33;10.10;99.90
21844;DHT22;11084;52.482;9.108;2022-08-07T02:28:03;10.00;99.90
21844;DHT22;11084;52.482;9.108;2022-08-07T02:30:35;10.00;99.90
21844;DHT22;11084;52.482;9.108;2022-08-07T02:33:03;10.00;99.90
21844;DHT22;11084;52.482;9.108;2022-08-07T02:35:32;10.00;99.90
21844;DHT22;11084;52.482;9.108;2022-08-07T02:38:02;9.90;99.90
21844;DHT22;11084;52.482;9.108;2022-08-07T02:40:32;9.80;99.90
21844;DHT22;11084;52.482;9.108;2022-08-07T02:43:01;9.80;99.90
21844;DHT22;11084;52.482;9.108;2022-08-07T02:45:29;9.80;99.90
21844;DHT22;11084;52.482;9.108;2022-08-07T02:47:56;9.80;99.90
21844;DHT22;11084;52.482;9.108;2022-08-07T02:50:22;9.80;99.90
21844;DHT22;11084;52.482;9.108;2022-08-07T02:52:55;9.70;99.90
21844;DHT22;11084;52.482;9.108;2022-08-07T02:55:28;9.70;99.90
21844;DHT22;11084;52.482;9.108;2022-08-07T02:58:00;9.60;99.90
21844;DHT22;11084;52.482;9.108;2022-08-07T03:00:29;9.60;99.90
21844;DHT22;11084;52.482;9.108;2022-08-07T03:02:59;9.50;99.90
21844;DHT22;11084;52.482;9.108;2022-08-07T03:05:26;9.60;99.90
21844;DHT22;11084;52.482;9.108;2022-08-07T03:07:57;9.60;99.90
21844;DHT22;11084;52.482;9.108;2022-08-07T03:10:24;9.60;99.90
21844;DHT22;11084;52.482;9.108;2022-08-07T03:12:52;9.60;99.90
21844;DHT22;11084;52.482;9.108;2022-08-07T03:15:19;9.60;99.90
21844;DHT22;11084;52.482;9.108;2022-08-07T03:17:48;9.60;99.90
21844;DHT22;11084;52.482;9.108;2022-08-07T03:22:41;9.50;99.90
21844;DHT22;11084;52.482;9.108;2022-08-07T03:25:11;9.60;99.90
21844;DHT22;11084;52.482;9.108;2022-08-07T03:27:41;9.50;99.90
21844;DHT22;11084;52.482;9.108;2022-08-07T03:30:12;9.50;99.90
21844;DHT22;11084;52.482;9.108;2022-08-07T03:32:42;9.40;99.90
21844;DHT22;11084;52.482;9.108;2022-08-07T03:35:15;9.40;99.90
21844;DHT22;11084;52.482;9.108;2022-08-07T03:37:44;9.40;99.90
21844;DHT22;11084;52.482;9.108;2022-08-07T03:40:13;9.40;99.90
21844;DHT22;11084;52.482;9.108;2022-08-07T03:42:40;9.90;99.90
21844;DHT22;11084;52.482;9.108;2022-08-07T03:45:07;9.40;99.90
21844;DHT22;11084;52.482;9.108;2022-08-07T03:47:36;9.40;99.90
21844;DHT22;11084;52.482;9.108;2022-08-07T03:50:03;9.30;99.90
21844;DHT22;11084;52.482;9.108;2022-08-07T03:52:36;9.40;99.90
21844;DHT22;11084;52.482;9.108;2022-08-07T03:55:06;9.30;99.90
21844;DHT22;11084;52.482;9.108;2022-08-07T03:57:33;9.30;99.90
21844;DHT22;11084;52.482;9.108;2022-08-07T04:00:00;9.30;99.90
21844;DHT22;11084;52.482;9.108;2022-08-07T04:02:27;9.30;99.90
21844;DHT22;11084;52.482;9.108;2022-08-07T04:04:54;9.30;99.90
21844;DHT22;11084;52.482;9.108;2022-08-07T04:07:23;9.30;99.90
21844;DHT22;11084;52.482;9.108;2022-08-07T04:09:50;9.40;99.90
21844;DHT22;11084;52.482;9.108;2022-08-07T04:12:21;9.40;99.90
21844;DHT22;11084;52.482;9.108;2022-08-07T04:14:49;9.40;99.90
21844;DHT22;11084;52.482;9.108;2022-08-07T04:17:18;9.40;99.90
21844;DHT22;11084;52.482;9.108;2022-08-07T04:19:45;9.40;99.90
21844;DHT22;11084;52.482;9.108;2022-08-07T04:22:13;9.40;99.90
21844;DHT22;11084;52.482;9.108;2022-08-07T04:24:41;9.40;99.90
21844;DHT22;11084;52.482;9.108;2022-08-07T04:27:11;9.40;99.90
21844;DHT22;11084;52.482;9.108;2022-08-07T04:29:38;9.50;99.90
21844;DHT22;11084;52.482;9.108;2022-08-07T04:32:05;9.50;99.90
21844;DHT22;11084;52.482;9.108;2022-08-07T04:34:33;9.50;99.90
21844;DHT22;11084;52.482;9.108;2022-08-07T04:37:00;9.50;99.90
21844;DHT22;11084;52.482;9.108;2022-08-07T04:39:27;9.50;99.90
21844;DHT22;11084;52.482;9.108;2022-08-07T04:41:54;9.50;99.90
21844;DHT22;11084;52.482;9.108;2022-08-07T04:44:21;9.60;99.90
21844;DHT22;11084;52.482;9.108;2022-08-07T04:47:02;9.60;99.90
21844;DHT22;11084;52.482;9.108;2022-08-07T04:49:42;9.70;99.90
21844;DHT22;11084;52.482;9.108;2022-08-07T04:52:46;9.70;99.90
21844;DHT22;11084;52.482;9.108;2022-08-07T04:55:47;9.80;99.90
21844;DHT22;11084;52.482;9.108;2022-08-07T04:58:40;10.00;99.90
21844;DHT22;11084;52.482;9.108;2022-08-07T05:04:07;10.10;99.90
21844;DHT22;11084;52.482;9.108;2022-08-07T05:09:34;10.20;99.90
21844;DHT22;11084;52.482;9.108;2022-08-07T05:12:07;10.50;99.90
21844;DHT22;11084;52.482;9.108;2022-08-07T05:14:45;10.70;99.90
21844;DHT22;11084;52.482;9.108;2022-08-07T05:17:14;10.90;99.90
21844;DHT22;11084;52.482;9.108;2022-08-07T05:19:49;10.90;99.90
21844;DHT22;11084;52.482;9.108;2022-08-07T05:22:18;11.30;99.90
21844;DHT22;11084;52.482;9.108;2022-08-07T05:24:46;11.70;99.90
21844;DHT22;11084;52.482;9.108;2022-08-07T05:27:14;11.90;99.90
21844;DHT22;11084;52.482;9.108;2022-08-07T05:29:42;12.10;99.90
21844;DHT22;11084;52.482;9.108;2022-08-07T05:32:12;12.20;99.90
21844;DHT22;11084;52.482;9.108;2022-08-07T05:34:41;12.70;99.90
21844;DHT22;11084;52.482;9.108;2022-08-07T05:37:08;12.90;99.90
21844;DHT22;11084;52.482;9.108;2022-08-07T05:39:42;13.10;99.90
21844;DHT22;11084;52.482;9.108;2022-08-07T05:42:09;13.10;99.90
21844;DHT22;11084;52.482;9.108;2022-08-07T05:44:38;13.40;99.90
21844;DHT22;11084;52.482;9.108;2022-08-07T05:47:05;13.60;99.90
21844;DHT22;11084;52.482;9.108;2022-08-07T05:49:34;13.70;99.90
21844;DHT22;11084;52.482;9.108;2022-08-07T05:52:01;14.20;99.90
21844;DHT22;11084;52.482;9.108;2022-08-07T05:54:29;14.20;99.90
21844;DHT22;11084;52.482;9.108;2022-08-07T05:56:56;14.80;99.90
21844;DHT22;11084;52.482;9.108;2022-08-07T05:59:24;15.20;99.90
21844;DHT22;11084;52.482;9.108;2022-08-07T06:01:58;15.20;99.90
21844;DHT22;11084;52.482;9.108;2022-08-07T06:04:24;15.70;99.90
21844;DHT22;11084;52.482;9.108;2022-08-07T06:06:53;16.00;99.90
21844;DHT22;11084;52.482;9.108;2022-08-07T06:09:19;16.00;99.90
21844;DHT22;11084;52.482;9.108;2022-08-07T06:11:47;16.50;99.90
21844;DHT22;11084;52.482;9.108;2022-08-07T06:14:16;17.00;99.90
21844;DHT22;11084;52.482;9.108;2022-08-07T06:16:46;16.90;99.90
21844;DHT22;11084;52.482;9.108;2022-08-07T06:19:13;17.60;99.90
21844;DHT22;11084;52.482;9.108;2022-08-07T06:21:40;17.60;99.90
21844;DHT22;11084;52.482;9.108;2022-08-07T06:24:08;18.20;99.90
21844;DHT22;11084;52.482;9.108;2022-08-07T06:26:34;18.50;99.90
21844;DHT22;11084;52.482;9.108;2022-08-07T06:29:00;18.80;99.90
21844;DHT22;11084;52.482;9.108;2022-08-07T06:31:31;19.10;99.90
21844;DHT22;11084;52.482;9.108;2022-08-07T06:33:57;19.40;99.90
21844;DHT22;11084;52.482;9.108;2022-08-07T06:36:23;19.80;99.90
21844;DHT22;11084;52.482;9.108;2022-08-07T06:38:56;20.00;99.90
21844;DHT22;11084;52.482;9.108;2022-08-07T06:41:42;20.10;99.90
21844;DHT22;11084;52.482;9.108;2022-08-07T06:44:12;20.60;99.90
21844;DHT22;11084;52.482;9.108;2022-08-07T06:46:40;20.60;99.90
21844;DHT22;11084;52.482;9.108;2022-08-07T06:49:06;20.80;99.90
21844;DHT22;11084;52.482;9.108;2022-08-07T06:51:36;21.10;99.90
21844;DHT22;11084;52.482;9.108;2022-08-07T06:54:09;21.60;99.90
21844;DHT22;11084;52.482;9.108;2022-08-07T06:56:37;21.60;99.90
21844;DHT22;11084;52.482;9.108;2022-08-07T06:59:20;21.80;99.90
21844;DHT22;11084;52.482;9.108;2022-08-07T07:01:54;22.10;99.60
21844;DHT22;11084;52.482;9.108;2022-08-07T07:04:24;22.20;99.90
21844;DHT22;11084;52.482;9.108;2022-08-07T07:06:51;22.80;98.10
21844;DHT22;11084;52.482;9.108;2022-08-07T07:09:26;22.90;99.90
21844;DHT22;11084;52.482;9.108;2022-08-07T07:15:13;23.50;96.10
21844;DHT22;11084;52.482;9.108;2022-08-07T07:18:12;23.80;95.70
21844;DHT22;11084;52.482;9.108;2022-08-07T07:20:51;24.10;95.90
21844;DHT22;11084;52.482;9.108;2022-08-07T07:23:20;24.30;94.60
21844;DHT22;11084;52.482;9.108;2022-08-07T07:25:48;24.50;91.90
21844;DHT22;11084;52.482;9.108;2022-08-07T07:28:22;24.50;93.80
21844;DHT22;11084;52.482;9.108;2022-08-07T07:30:55;24.60;93.10
21844;DHT22;11084;52.482;9.108;2022-08-07T07:33:27;25.00;93.00
21844;DHT22;11084;52.482;9.108;2022-08-07T07:35:56;25.00;88.50
21844;DHT22;11084;52.482;9.108;2022-08-07T07:38:23;25.10;91.50
21844;DHT22;11084;52.482;9.108;2022-08-07T07:41:00;25.20;92.00
21844;DHT22;11084;52.482;9.108;2022-08-07T07:43:30;25.30;89.80
21844;DHT22;11084;52.482;9.108;2022-08-07T07:45:57;25.40;90.10
21844;DHT22;11084;52.482;9.108;2022-08-07T07:50:53;25.90;88.80
21844;DHT22;11084;52.482;9.108;2022-08-07T07:53:21;26.00;89.00
21844;DHT22;11084;52.482;9.108;2022-08-07T07:55:55;26.00;81.70
21844;DHT22;11084;52.482;9.108;2022-08-07T07:58:27;26.00;83.80
21844;DHT22;11084;52.482;9.108;2022-08-07T08:00:55;26.30;85.30
21844;DHT22;11084;52.482;9.108;2022-08-07T08:03:22;26.30;86.00
21844;DHT22;11084;52.482;9.108;2022-08-07T08:05:50;26.50;83.50
21844;DHT22;11084;52.482;9.108;2022-08-07T08:08:16;26.70;79.40
21844;DHT22;11084;52.482;9.108;2022-08-07T08:10:43;26.80;80.30
21844;DHT22;11084;52.482;9.108;2022-08-07T08:13:11;26.90;83.00
21844;DHT22;11084;52.482;9.108;2022-08-07T08:15:39;27.10;81.50
21844;DHT22;11084;52.482;9.108;2022-08-07T08:18:09;27.50;78.90
21844;DHT22;11084;52.482;9.108;2022-08-07T08:20:38;27.50;77.00
21844;DHT22;11084;52.482;9.108;2022-08-07T08:23:07;27.90;77.80
21844;DHT22;11084;52.482;9.108;2022-08-07T08:25:52;27.90;77.30
21844;DHT22;11084;52.482;9.108;2022-08-07T08:28:40;28.40;76.60
21844;DHT22;11084;52.482;9.108;2022-08-07T08:31:10;28.60;67.80
21844;DHT22;11084;52.482;9.108;2022-08-07T08:33:52;28.80;68.30
21844;DHT22;11084;52.482;9.108;2022-08-07T08:36:23;28.90;69.70
21844;DHT22;11084;52.482;9.108;2022-08-07T08:38:53;29.20;70.60
21844;DHT22;11084;52.482;9.108;2022-08-07T08:44:29;29.00;67.40
21844;DHT22;11084;52.482;9.108;2022-08-07T08:50:19;28.60;63.00
21844;DHT22;11084;52.482;9.108;2022-08-07T08:53:02;28.20;68.50
21844;DHT22;11084;52.482;9.108;2022-08-07T08:55:37;28.20;69.00
21844;DHT22;11084;52.482;9.108;2022-08-07T08:58:55;28.10;69.60
21844;DHT22;11084;52.482;9.108;2022-08-07T09:01:25;28.30;63.40
21844;DHT22;11084;52.482;9.108;2022-08-07T09:07:31;28.70;67.70
21844;DHT22;11084;52.482;9.108;2022-08-07T09:16:06;28.60;67.90
21844;DHT22;11084;52.482;9.108;2022-08-07T09:21:44;28.70;65.40
21844;DHT22;11084;52.482;9.108;2022-08-07T09:27:59;29.10;63.00
21844;DHT22;11084;52.482;9.108;2022-08-07T09:33:34;29.60;60.50
21844;DHT22;11084;52.482;9.108;2022-08-07T09:40:00;29.80;59.70
21844;DHT22;11084;52.482;9.108;2022-08-07T09:45:46;30.30;63.60
21844;DHT22;11084;52.482;9.108;2022-08-07T09:54:35;30.60;60.00
21844;DHT22;11084;52.482;9.108;2022-08-07T10:00:11;30.90;57.90
21844;DHT22;11084;52.482;9.108;2022-08-07T10:03:09;31.00;58.60
21844;DHT22;11084;52.482;9.108;2022-08-07T10:20:15;31.30;59.20
21844;DHT22;11084;52.482;9.108;2022-08-07T10:23:23;31.30;57.00
21844;DHT22;11084;52.482;9.108;2022-08-07T10:26:15;31.30;57.70
21844;DHT22;11084;52.482;9.108;2022-08-07T10:40:52;30.50;53.80
21844;DHT22;11084;52.482;9.108;2022-08-07T10:43:34;30.40;53.10
21844;DHT22;11084;52.482;9.108;2022-08-07T10:46:24;30.40;53.30
21844;DHT22;11084;52.482;9.108;2022-08-07T10:49:05;30.40;54.40
21844;DHT22;11084;52.482;9.108;2022-08-07T10:57:55;30.80;54.70
21844;DHT22;11084;52.482;9.108;2022-08-07T11:00:30;30.90;53.70
21844;DHT22;11084;52.482;9.108;2022-08-07T11:03:04;30.90;53.30
21844;DHT22;11084;52.482;9.108;2022-08-07T11:17:07;30.80;51.20
21844;DHT22;11084;52.482;9.108;2022-08-07T11:19:48;30.80;51.90
21844;DHT22;11084;52.482;9.108;2022-08-07T11:22:24;30.80;51.90
21844;DHT22;11084;52.482;9.108;2022-08-07T11:36:15;31.40;48.60
21844;DHT22;11084;52.482;9.108;2022-08-07T11:39:18;31.60;49.80
21844;DHT22;11084;52.482;9.108;2022-08-07T11:42:18;31.50;49.00
21844;DHT22;11084;52.482;9.108;2022-08-07T11:44:59;31.60;50.90
21844;DHT22;11084;52.482;9.108;2022-08-07T11:53:21;31.70;50.80
21844;DHT22;11084;52.482;9.108;2022-08-07T12:03:10;31.40;46.60
21844;DHT22;11084;52.482;9.108;2022-08-07T12:08:42;31.60;49.80
21844;DHT22;11084;52.482;9.108;2022-08-07T12:11:21;31.70;47.90
21844;DHT22;11084;52.482;9.108;2022-08-07T12:14:00;31.70;47.30
21844;DHT22;11084;52.482;9.108;2022-08-07T12:16:43;31.70;48.60
21844;DHT22;11084;52.482;9.108;2022-08-07T12:19:16;31.70;47.60
21844;DHT22;11084;52.482;9.108;2022-08-07T12:27:48;31.90;50.40
21844;DHT22;11084;52.482;9.108;2022-08-07T12:30:20;31.80;47.50
21844;DHT22;11084;52.482;9.108;2022-08-07T12:35:26;31.90;45.40
21844;DHT22;11084;52.482;9.108;2022-08-07T12:37:54;31.90;46.90
21844;DHT22;11084;52.482;9.108;2022-08-07T12:40:30;31.90;45.90
21844;DHT22;11084;52.482;9.108;2022-08-07T12:43:03;31.80;44.40
21844;DHT22;11084;52.482;9.108;2022-08-07T12:48:54;31.80;46.10
21844;DHT22;11084;52.482;9.108;2022-08-07T12:51:26;31.90;47.30
21844;DHT22;11084;52.482;9.108;2022-08-07T12:56:40;32.00;45.60
21844;DHT22;11084;52.482;9.108;2022-08-07T12:59:14;32.00;47.70
21844;DHT22;11084;52.482;9.108;2022-08-07T13:14:35;31.10;47.40
21844;DHT22;11084;52.482;9.108;2022-08-07T13:17:23;31.10;46.60
21844;DHT22;11084;52.482;9.108;2022-08-07T13:20:19;31.40;46.90
21844;DHT22;11084;52.482;9.108;2022-08-07T13:22:51;31.60;47.70
21844;DHT22;11084;52.482;9.108;2022-08-07T13:25:37;31.70;46.60
21844;DHT22;11084;52.482;9.108;2022-08-07T13:29:13;31.60;43.70
21844;DHT22;11084;52.482;9.108;2022-08-07T13:31:51;31.40;47.70
21844;DHT22;11084;52.482;9.108;2022-08-07T13:34:45;31.30;44.50
21844;DHT22;11084;52.482;9.108;2022-08-07T13:37:36;31.20;46.50
21844;DHT22;11084;52.482;9.108;2022-08-07T13:43:05;31.20;45.10
21844;DHT22;11084;52.482;9.108;2022-08-07T13:45:39;31.00;42.70
21844;DHT22;11084;52.482;9.108;2022-08-07T13:48:10;30.90;45.30
21844;DHT22;11084;52.482;9.108;2022-08-07T13:50:40;30.90;46.10
21844;DHT22;11084;52.482;9.108;2022-08-07T13:53:07;30.90;46.50
21844;DHT22;11084;52.482;9.108;2022-08-07T13:55:34;31.00;44.40
21844;DHT22;11084;52.482;9.108;2022-08-07T13:58:07;31.10;46.00
21844;DHT22;11084;52.482;9.108;2022-08-07T14:00:53;31.00;43.50
21844;DHT22;11084;52.482;9.108;2022-08-07T14:03:24;30.90;45.80
21844;DHT22;11084;52.482;9.108;2022-08-07T14:05:55;29.40;45.20
21844;DHT22;11084;52.482;9.108;2022-08-07T14:08:23;30.70;44.80
21844;DHT22;11084;52.482;9.108;2022-08-07T14:10:51;30.80;46.30
21844;DHT22;11084;52.482;9.108;2022-08-07T14:13:25;30.70;45.60
21844;DHT22;11084;52.482;9.108;2022-08-07T14:16:08;30.70;46.00
21844;DHT22;11084;52.482;9.108;2022-08-07T14:18:44;30.80;46.10
21844;DHT22;11084;52.482;9.108;2022-08-07T14:22:01;30.80;45.30
21844;DHT22;11084;52.482;9.108;2022-08-07T14:26:50;30.60;42.00
21844;DHT22;11084;52.482;9.108;2022-08-07T14:29:23;30.50;45.10
21844;DHT22;11084;52.482;9.108;2022-08-07T14:31:53;30.50;45.80
21844;DHT22;11084;52.482;9.108;2022-08-07T14:34:20;30.50;44.80
21844;DHT22;11084;52.482;9.108;2022-08-07T14:36:50;30.60;44.40
21844;DHT22;11084;52.482;9.108;2022-08-07T14:39:18;30.60;45.10
21844;DHT22;11084;52.482;9.108;2022-08-07T14:41:48;30.60;46.00
21844;DHT22;11084;52.482;9.108;2022-08-07T14:44:16;30.60;45.40
21844;DHT22;11084;52.482;9.108;2022-08-07T14:46:45;30.50;43.40
21844;DHT22;11084;52.482;9.108;2022-08-07T14:49:14;30.40;44.80
21844;DHT22;11084;52.482;9.108;2022-08-07T14:51:42;30.20;44.10
21844;DHT22;11084;52.482;9.108;2022-08-07T14:54:12;30.10;44.10
21844;DHT22;11084;52.482;9.108;2022-08-07T14:56:41;29.90;44.80
21844;DHT22;11084;52.482;9.108;2022-08-07T14:59:12;29.70;45.50
21844;DHT22;11084;52.482;9.108;2022-08-07T15:04:07;29.40;45.90
21844;DHT22;11084;52.482;9.108;2022-08-07T15:06:35;29.30;46.00
21844;DHT22;11084;52.482;9.108;2022-08-07T15:09:08;29.20;45.60
21844;DHT22;11084;52.482;9.108;2022-08-07T15:11:57;29.00;45.60
21844;DHT22;11084;52.482;9.108;2022-08-07T15:14:30;28.80;45.60
21844;DHT22;11084;52.482;9.108;2022-08-07T15:17:00;28.70;45.50
21844;DHT22;11084;52.482;9.108;2022-08-07T15:19:37;28.50;45.70
21844;DHT22;11084;52.482;9.108;2022-08-07T15:22:06;28.50;45.90
21844;DHT22;11084;52.482;9.108;2022-08-07T15:24:39;28.40;45.60
21844;DHT22;11084;52.482;9.108;2022-08-07T15:27:24;28.50;46.80
21844;DHT22;11084;52.482;9.108;2022-08-07T15:29:55;28.50;47.30
21844;DHT22;11084;52.482;9.108;2022-08-07T15:32:24;28.70;46.40
21844;DHT22;11084;52.482;9.108;2022-08-07T15:34:53;28.70;46.90
21844;DHT22;11084;52.482;9.108;2022-08-07T15:37:25;28.60;46.70
21844;DHT22;11084;52.482;9.108;2022-08-07T15:39:58;28.60;46.80
21844;DHT22;11084;52.482;9.108;2022-08-07T15:45:04;28.50;46.00
21844;DHT22;11084;52.482;9.108;2022-08-07T15:47:34;28.40;46.80
21844;DHT22;11084;52.482;9.108;2022-08-07T15:50:05;28.40;46.90
21844;DHT22;11084;52.482;9.108;2022-08-07T15:52:35;28.30;47.30
21844;DHT22;11084;52.482;9.108;2022-08-07T15:55:04;28.20;47.10
21844;DHT22;11084;52.482;9.108;2022-08-07T15:57:33;28.20;46.30
21844;DHT22;11084;52.482;9.108;2022-08-07T16:00:01;28.20;47.00
21844;DHT22;11084;52.482;9.108;2022-08-07T16:02:41;28.20;47.40
21844;DHT22;11084;52.482;9.108;2022-08-07T16:05:12;28.10;46.00
21844;DHT22;11084;52.482;9.108;2022-08-07T16:07:47;27.90;47.40
21844;DHT22;11084;52.482;9.108;2022-08-07T16:10:16;27.90;47.30
21844;DHT22;11084;52.482;9.108;2022-08-07T16:16:33;27.80;46.00
21844;DHT22;11084;52.482;9.108;2022-08-07T16:19:29;27.70;47.10
21844;DHT22;11084;52.482;9.108;2022-08-07T16:27:12;27.30;46.30
21844;DHT22;11084;52.482;9.108;2022-08-07T16:30:08;27.30;46.40
21844;DHT22;11084;52.482;9.108;2022-08-07T16:33:14;27.20;46.40
21844;DHT22;11084;52.482;9.108;2022-08-07T16:35:40;27.00;46.80
21844;DHT22;11084;52.482;9.108;2022-08-07T16:38:50;26.90;46.70
21844;DHT22;11084;52.482;9.108;2022-08-07T16:50:34;26.70;46.80
21844;DHT22;11084;52.482;9.108;2022-08-07T17:04:48;26.20;48.60
21844;DHT22;11084;52.482;9.108;2022-08-07T17:12:42;26.10;49.30
21844;DHT22;11084;52.482;9.108;2022-08-07T17:17:51;26.00;50.00
21844;DHT22;11084;52.482;9.108;2022-08-07T17:20:33;25.90;49.50
21844;DHT22;11084;52.482;9.108;2022-08-07T17:29:17;25.80;50.10
21844;DHT22;11084;52.482;9.108;2022-08-07T17:34:42;25.70;51.00
21844;DHT22;11084;52.482;9.108;2022-08-07T17:37:48;25.60;51.40
21844;DHT22;11084;52.482;9.108;2022-08-07T17:40:43;25.50;51.90
21844;DHT22;11084;52.482;9.108;2022-08-07T17:43:26;25.50;51.10
21844;DHT22;11084;52.482;9.108;2022-08-07T17:46:11;25.30;50.70
21844;DHT22;11084;52.482;9.108;2022-08-07T17:51:49;25.10;52.50
21844;DHT22;11084;52.482;9.108;2022-08-07T17:54:29;25.10;52.10
21844;DHT22;11084;52.482;9.108;2022-08-07T17:57:13;24.90;51.90
21844;DHT22;11084;52.482;9.108;2022-08-07T18:03:08;24.70;53.00
21844;DHT22;11084;52.482;9.108;2022-08-07T18:08:24;24.50;53.10
21844;DHT22;11084;52.482;9.108;2022-08-07T18:11:23;24.30;52.90
21844;DHT22;11084;52.482;9.108;2022-08-07T18:16:43;24.10;53.50
21844;DHT22;11084;52.482;9.108;2022-08-07T18:22:12;23.80;53.80
21844;DHT22;11084;52.482;9.108;2022-08-07T18:24:45;23.70;54.60
21844;DHT22;11084;52.482;9.108;2022-08-07T18:27:43;23.50;55.30
21844;DHT22;11084;52.482;9.108;2022-08-07T18:30:25;22.40;54.40
21844;DHT22;11084;52.482;9.108;2022-08-07T18:33:35;23.30;56.10
21844;DHT22;11084;52.482;9.108;2022-08-07T18:36:27;23.10;56.00
21844;DHT22;11084;52.482;9.108;2022-08-07T18:46:07;22.60;56.90
21844;DHT22;11084;52.482;9.108;2022-08-07T18:49:08;22.40;57.80
21844;DHT22;11084;52.482;9.108;2022-08-07T18:51:49;22.30;58.10
21844;DHT22;11084;52.482;9.108;2022-08-07T18:54:24;22.10;58.70
21844;DHT22;11084;52.482;9.108;2022-08-07T18:57:20;22.00;59.10
21844;DHT22;11084;52.482;9.108;2022-08-07T19:00:06;21.80;59.50
21844;DHT22;11084;52.482;9.108;2022-08-07T19:03:01;21.70;59.80
21844;DHT22;11084;52.482;9.108;2022-08-07T19:05:51;21.50;60.40
21844;DHT22;11084;52.482;9.108;2022-08-07T19:08:27;21.40;61.00
21844;DHT22;11084;52.482;9.108;2022-08-07T19:11:07;21.30;62.30
21844;DHT22;11084;52.482;9.108;2022-08-07T19:16:29;21.00;63.40
21844;DHT22;11084;52.482;9.108;2022-08-07T19:19:03;20.80;63.00
21844;DHT22;11084;52.482;9.108;2022-08-07T19:21:44;20.80;63.20
21844;DHT22;11084;52.482;9.108;2022-08-07T19:24:17;20.60;64.60
21844;DHT22;11084;52.482;9.108;2022-08-07T19:27:04;20.40;65.20
21844;DHT22;11084;52.482;9.108;2022-08-07T19:29:40;20.30;65.20
21844;DHT22;11084;52.482;9.108;2022-08-07T19:32:11;20.20;65.90
21844;DHT22;11084;52.482;9.108;2022-08-07T19:34:58;20.10;66.40
21844;DHT22;11084;52.482;9.108;2022-08-07T19:37:28;20.00;66.50
21844;DHT22;11084;52.482;9.108;2022-08-07T19:40:01;19.90;68.90
21844;DHT22;11084;52.482;9.108;2022-08-07T19:42:30;19.70;68.70
21844;DHT22;11084;52.482;9.108;2022-08-07T19:45:02;19.60;71.40
21844;DHT22;11084;52.482;9.108;2022-08-07T19:47:31;19.70;71.10
21844;DHT22;11084;52.482;9.108;2022-08-07T19:49:58;19.40;73.40
21844;DHT22;11084;52.482;9.108;2022-08-07T19:52:28;19.40;71.50
21844;DHT22;11084;52.482;9.108;2022-08-07T19:54:56;19.20;70.80
21844;DHT22;11084;52.482;9.108;2022-08-07T19:57:28;19.20;70.80
21844;DHT22;11084;52.482;9.108;2022-08-07T20:00:06;19.10;72.30
21844;DHT22;11084;52.482;9.108;2022-08-07T20:02:35;19.10;70.60
21844;DHT22;11084;52.482;9.108;2022-08-07T20:05:05;18.90;74.30
21844;DHT22;11084;52.482;9.108;2022-08-07T20:07:35;18.90;72.10
21844;DHT22;11084;52.482;9.108;2022-08-07T20:10:04;18.70;73.40
21844;DHT22;11084;52.482;9.108;2022-08-07T20:12:33;18.50;72.40
21844;DHT22;11084;52.482;9.108;2022-08-07T20:15:04;18.50;75.10